Aérodrome :
LOGIN :

S'inscrire | Disclaimer

   EN    FR    IT 

 










Légende :    VFR   VFR Marginal   IFR   IFR Intensif   IFR Très Intensif
Visi : 
Plafond : 
>= 8 km
>= 3000ft
5 à 8 km
1000 à 3000 ft
1500m à 5 km
500 à 1000 ft
800 à 1500m
200 à 500 ft
< 800m
< 200 ft
Symboles :   Orages  Brouillard  Fortes neiges  Fortes précipitations  Vent > 20 kt
SIGMETs :   Divers  Orages  Givrage  Turbulence  Onde Orograph.  Cendres Volcan.






- Altitude de l'aérodrome : 459 ft
- Code IATA : CER


LFRC - Cherbourg / Maupertus

DERNIER METAR :
  • 012230Z AUTO 23007KT 9999 BKN041 BKN048 OVC060 13/10 Q1021

METARs EXPIRÉS :
  • 011630Z AUTO 24011KT 200V280 9999 FEW037 BKN068 18/09 Q1020 NOSIG
  • 012200Z AUTO 23007KT 9999 FEW039 BKN045 BKN054 13/09 Q1021
  • 012130Z AUTO 23007KT 9999 BKN045 BKN060 12/08 Q1021
  • 012100Z AUTO 21005KT 9999 BKN046 BKN062 12/08 Q1021
  • 012030Z AUTO 21004KT 9999 SCT046 SCT062 13/08 Q1021
  • 010530Z AUTO 25008KT CAVOK 12/11 Q1018 TEMPO SHRA
  • 012000Z AUTO 23005KT CAVOK 14/08 Q1021

TAF TAF LFRC
Valide du 01 à 15h jusqu'au 02 à 00h UTC


011400Z 0115/0124 26010KT 9999 SCT030



MET'MAP, la Météo Aéronautique d'un coup d'oeil ! - Copyright ORBIFLY Décembre 2007 - Disclaimer

ORBIFLY MET'MAP TEAM :

Programmation & Développement : Alexandra Zaïnal
Sur une idée originale de : Baudouin d'Aumeries
Soutien technique & logistique : Manuel Goepfert
Assistance : Marc-Olivier Méhu




SOURCES & CREDITS :

   NOAA